Time,TemperatureF,DewpointF,PressureIn,WindDirection,WindDirectionDegrees,WindSpeedMPH,WindSpeedGustMPH,Humidity,HourlyPrecipIn,Conditions,Clouds,dailyrainin,SoftwareType,DateUTC
2013-07-23 00:22:00,71.0,33.0,-100.00,ENE,58,10.0,15.0,25,0.00,,,-99.99,,2013-07-23 00:22:00,
2013-07-23 00:32:00,70.0,34.0,-100.00,NE,52,7.0,12.0,26,0.00,,,-99.99,,2013-07-23 00:32:00,
2013-07-23 00:43:00,71.0,33.0,-100.00,NNE,30,9.0,16.0,24,0.00,,,-99.99,,2013-07-23 00:43:00,
2013-07-23 01:01:00,70.0,34.0,-100.00,ENE,64,13.0,17.0,26,0.00,,,-99.99,,2013-07-23 01:01:00,
2013-07-23 01:43:00,68.0,32.0,-100.00,ENE,61,12.0,15.0,26,0.00,,,-99.99,,2013-07-23 01:43:00,
2013-07-23 01:53:00,69.0,31.0,-100.00,ENE,59,14.0,19.0,24,0.00,,,-99.99,,2013-07-23 01:53:00,
2013-07-23 02:01:00,68.0,31.0,-100.00,ENE,65,15.0,17.0,25,0.00,,,-99.99,,2013-07-23 02:01:00,
2013-07-23 02:43:00,-999.0,-99.9,-100.00,ENE,72,15.0,17.0,-999,-99.99,,,-99.99,,2013-07-23 02:43:00,
2013-07-23 03:43:00,64.0,25.0,-100.00,ENE,72,14.0,21.0,22,0.00,,,-99.99,,2013-07-23 03:43:00,
2013-07-23 04:01:00,63.0,24.0,-100.00,ENE,78,17.0,25.0,22,0.00,,,-99.99,,2013-07-23 04:01:00,
2013-07-23 04:42:00,62.0,20.0,-100.00,East,79,17.0,24.0,20,0.00,,,-99.99,,2013-07-23 04:42:00,
2013-07-23 05:43:00,59.0,36.0,-100.00,ENE,58,17.0,23.0,41,0.00,,,-99.99,,2013-07-23 05:43:00,
2013-07-23 06:42:00,57.0,34.0,-100.00,ENE,71,14.0,19.0,42,0.00,,,-99.99,,2013-07-23 06:42:00,
2013-07-23 07:12:00,-999.0,-99.9,-100.00,ENE,75,14.0,17.0,-999,-99.99,,,-99.99,,2013-07-23 07:12:00,
2013-07-23 07:33:00,-999.0,-99.9,-100.00,East,83,17.0,21.0,-999,-99.99,,,-99.99,,2013-07-23 07:33:00,
2013-07-23 07:42:00,56.0,33.0,-100.00,East,86,17.0,21.0,42,0.00,,,-99.99,,2013-07-23 07:42:00,
2013-07-23 08:01:00,54.0,33.0,-100.00,East,86,16.0,18.0,46,0.00,,,-99.99,,2013-07-23 08:01:00,
2013-07-23 08:43:00,53.0,33.0,-100.00,East,89,11.0,14.0,47,0.00,,,-99.99,,2013-07-23 08:43:00,
2013-07-23 09:43:00,-999.0,-99.9,-100.00,East,99,9.0,11.0,-999,-99.99,,,-99.99,,2013-07-23 09:43:00,
2013-07-23 10:43:00,54.0,32.0,-100.00,WNW,302,0.0,0.0,42,0.00,,,-99.99,,2013-07-23 10:43:00,
2013-07-23 11:43:00,53.0,32.0,-100.00,West,275,4.0,7.0,44,0.00,,,-99.99,,2013-07-23 11:43:00,
2013-07-23 12:02:00,53.0,32.0,-100.00,West,280,1.0,7.0,45,0.00,,,-99.99,,2013-07-23 12:02:00,
2013-07-23 12:43:00,-999.0,-99.9,-100.00,West,272,2.0,7.0,-999,-99.99,,,-99.99,,2013-07-23 12:43:00,
2013-07-23 13:43:00,54.0,33.0,-100.00,West,265,6.0,9.0,44,0.00,,,-99.99,,2013-07-23 13:43:00,
2013-07-23 14:44:00,57.0,33.0,-100.00,WSW,256,7.0,10.0,41,0.00,,,-99.99,,2013-07-23 14:44:00,
2013-07-23 15:43:00,62.0,33.0,-100.00,West,275,1.0,6.0,33,0.00,,,-99.99,,2013-07-23 15:43:00,
2013-07-23 16:43:00,66.0,33.0,-100.00,WNW,298,2.0,5.0,29,0.00,,,-99.99,,2013-07-23 16:43:00,
2013-07-23 17:02:00,66.0,27.0,-100.00,NNE,21,4.0,9.0,22,0.00,,,-99.99,,2013-07-23 17:02:00,
2013-07-23 17:42:00,-999.0,-99.9,-100.00,ENE,59,12.0,17.0,-999,-99.99,,,-99.99,,2013-07-23 17:42:00,
2013-07-23 18:14:00,-999.0,-99.9,-100.00,ENE,66,12.0,17.0,-999,-99.99,,,-99.99,,2013-07-23 18:14:00,
2013-07-23 19:32:00,69.0,28.0,-100.00,NE,56,11.0,17.0,22,0.00,,,-99.99,,2013-07-23 19:32:00,
2013-07-23 19:45:00,69.0,30.0,-100.00,NE,55,12.0,19.0,24,0.00,,,-99.99,,2013-07-23 19:45:00,
2013-07-23 20:44:00,70.0,30.0,-100.00,ENE,68,14.0,21.0,22,0.00,,,-99.99,,2013-07-23 20:44:00,
2013-07-23 21:48:00,-999.0,-99.9,-100.00,ENE,59,12.0,19.0,-999,-99.99,,,-99.99,,2013-07-23 21:48:00,
2013-07-23 22:06:00,-999.0,-99.9,-100.00,ENE,65,14.0,21.0,-999,-99.99,,,-99.99,,2013-07-23 22:06:00,
2013-07-23 22:43:00,69.0,31.0,-100.00,NE,54,14.0,21.0,24,0.00,,,-99.99,,2013-07-23 22:43:00,
2013-07-23 22:55:00,71.0,33.0,-100.00,ENE,59,13.0,19.0,25,0.00,,,-99.99,,2013-07-23 22:55:00,
2013-07-23 23:38:00,-999.0,-99.9,-100.00,NE,55,11.0,17.0,-999,-99.99,,,-99.99,,2013-07-23 23:38:00,
2013-07-23 23:43:00,70.0,32.0,-100.00,NE,52,11.0,19.0,24,0.00,,,-99.99,,2013-07-23 23:43:00,